Delta, Louisiana
Current Conditions -  °F | °C
As of 4:55 AM on Sunday 26 Oct 2014 (Local Time) from KVKS Reporting Station
Haze Haze  
Wind Chill: 13°   Ceiling: 3800
Heat Index: 13°   Visibility: 6mi
Dew Point: 12°   Wind: 0mph
Humidity: 94%   Direction: NA
Pressure: 30.04"   Gusts: NA
Location:  32.33°N, 90.93°W
Report Text: KVKS 260955Z AUTO 00000KT 6SM BR OVC038 13/12 A3004 RMK A01
Loading
Personal Weather Stations






























Interactive Weather Map
Tropical Storm Tracking
New forecast layout! Learn more

10-Day Weather Forecast

Advertisements
Track Severe Weather on mobile